sensor_id;sensor_type;location;lat;lon;timestamp;P1;durP1;ratioP1;P2;durP2;ratioP2
53010;SDS011;42803;55.762;38.084;2024-03-23T00:52:37;37.65;;;16.58;;
53010;SDS011;42803;55.762;38.084;2024-03-23T00:55:05;44.38;;;17.00;;
53010;SDS011;42803;55.762;38.084;2024-03-23T00:57:33;40.65;;;17.25;;
53010;SDS011;42803;55.762;38.084;2024-03-23T01:00:01;41.83;;;16.42;;
53010;SDS011;42803;55.762;38.084;2024-03-23T01:02:31;39.00;;;15.23;;
53010;SDS011;42803;55.762;38.084;2024-03-23T01:04:59;50.72;;;18.17;;
53010;SDS011;42803;55.762;38.084;2024-03-23T01:07:26;40.13;;;16.30;;
53010;SDS011;42803;55.762;38.084;2024-03-23T01:09:54;38.78;;;15.70;;
53010;SDS011;42803;55.762;38.084;2024-03-23T01:12:20;40.53;;;15.98;;
53010;SDS011;42803;55.762;38.084;2024-03-23T01:14:48;42.03;;;18.38;;
53010;SDS011;42803;55.762;38.084;2024-03-23T01:17:15;42.50;;;16.60;;
53010;SDS011;42803;55.762;38.084;2024-03-23T01:19:43;43.08;;;16.90;;
53010;SDS011;42803;55.762;38.084;2024-03-23T01:22:09;37.63;;;16.38;;
53010;SDS011;42803;55.762;38.084;2024-03-23T01:24:37;38.92;;;16.40;;
53010;SDS011;42803;55.762;38.084;2024-03-23T01:27:04;39.38;;;15.43;;
53010;SDS011;42803;55.762;38.084;2024-03-23T01:29:32;44.25;;;15.07;;
53010;SDS011;42803;55.762;38.084;2024-03-23T01:31:59;42.60;;;15.70;;
53010;SDS011;42803;55.762;38.084;2024-03-23T01:34:27;42.05;;;15.70;;
53010;SDS011;42803;55.762;38.084;2024-03-23T01:36:54;37.38;;;14.77;;
53010;SDS011;42803;55.762;38.084;2024-03-23T01:39:21;41.83;;;17.08;;
53010;SDS011;42803;55.762;38.084;2024-03-23T01:41:48;44.30;;;15.15;;
53010;SDS011;42803;55.762;38.084;2024-03-23T01:44:16;39.45;;;15.48;;
53010;SDS011;42803;55.762;38.084;2024-03-23T01:46:43;37.78;;;16.02;;
53010;SDS011;42803;55.762;38.084;2024-03-23T01:49:12;36.65;;;15.25;;
53010;SDS011;42803;55.762;38.084;2024-03-23T01:51:39;36.95;;;16.17;;
53010;SDS011;42803;55.762;38.084;2024-03-23T01:54:07;37.83;;;16.88;;
53010;SDS011;42803;55.762;38.084;2024-03-23T01:56:35;40.47;;;16.60;;
53010;SDS011;42803;55.762;38.084;2024-03-23T01:59:03;37.60;;;14.90;;
53010;SDS011;42803;55.762;38.084;2024-03-23T02:01:31;37.33;;;15.55;;
53010;SDS011;42803;55.762;38.084;2024-03-23T02:03:59;37.10;;;15.27;;
53010;SDS011;42803;55.762;38.084;2024-03-23T02:06:27;39.38;;;16.70;;
53010;SDS011;42803;55.762;38.084;2024-03-23T02:08:54;34.78;;;14.93;;
53010;SDS011;42803;55.762;38.084;2024-03-23T02:11:22;46.85;;;16.88;;
53010;SDS011;42803;55.762;38.084;2024-03-23T02:13:50;34.30;;;16.55;;
53010;SDS011;42803;55.762;38.084;2024-03-23T02:16:17;34.40;;;16.08;;
53010;SDS011;42803;55.762;38.084;2024-03-23T02:18:45;37.90;;;15.85;;
53010;SDS011;42803;55.762;38.084;2024-03-23T02:21:12;37.55;;;15.10;;
53010;SDS011;42803;55.762;38.084;2024-03-23T02:23:40;35.53;;;15.20;;
53010;SDS011;42803;55.762;38.084;2024-03-23T02:26:07;37.90;;;15.93;;
53010;SDS011;42803;55.762;38.084;2024-03-23T02:28:34;47.25;;;16.52;;
53010;SDS011;42803;55.762;38.084;2024-03-23T02:31:01;34.13;;;13.50;;
53010;SDS011;42803;55.762;38.084;2024-03-23T02:33:30;32.30;;;14.65;;
53010;SDS011;42803;55.762;38.084;2024-03-23T02:35:58;34.55;;;13.98;;
53010;SDS011;42803;55.762;38.084;2024-03-23T02:38:26;34.20;;;14.27;;
53010;SDS011;42803;55.762;38.084;2024-03-23T02:40:52;35.47;;;14.73;;
53010;SDS011;42803;55.762;38.084;2024-03-23T02:43:20;36.83;;;15.00;;
53010;SDS011;42803;55.762;38.084;2024-03-23T02:45:47;37.05;;;16.58;;
53010;SDS011;42803;55.762;38.084;2024-03-23T02:48:15;34.03;;;14.80;;
53010;SDS011;42803;55.762;38.084;2024-03-23T02:50:41;31.88;;;13.77;;
53010;SDS011;42803;55.762;38.084;2024-03-23T02:53:09;36.58;;;14.82;;
53010;SDS011;42803;55.762;38.084;2024-03-23T02:55:36;33.38;;;14.27;;
53010;SDS011;42803;55.762;38.084;2024-03-23T02:58:04;37.13;;;15.40;;
53010;SDS011;42803;55.762;38.084;2024-03-23T03:00:31;36.53;;;14.85;;
53010;SDS011;42803;55.762;38.084;2024-03-23T03:02:59;34.15;;;14.10;;
53010;SDS011;42803;55.762;38.084;2024-03-23T03:05:25;32.28;;;13.82;;
53010;SDS011;42803;55.762;38.084;2024-03-23T03:07:53;35.00;;;14.43;;
53010;SDS011;42803;55.762;38.084;2024-03-23T03:10:20;39.60;;;15.18;;
53010;SDS011;42803;55.762;38.084;2024-03-23T03:12:48;32.60;;;14.60;;
53010;SDS011;42803;55.762;38.084;2024-03-23T03:15:15;35.28;;;15.23;;
53010;SDS011;42803;55.762;38.084;2024-03-23T03:17:42;33.88;;;13.63;;
53010;SDS011;42803;55.762;38.084;2024-03-23T03:20:09;31.27;;;13.02;;
53010;SDS011;42803;55.762;38.084;2024-03-23T03:22:39;35.67;;;14.32;;
53010;SDS011;42803;55.762;38.084;2024-03-23T03:25:06;33.40;;;14.48;;
53010;SDS011;42803;55.762;38.084;2024-03-23T03:27:34;35.78;;;13.65;;
53010;SDS011;42803;55.762;38.084;2024-03-23T03:30:01;28.60;;;13.32;;
53010;SDS011;42803;55.762;38.084;2024-03-23T03:32:32;33.92;;;14.23;;
53010;SDS011;42803;55.762;38.084;2024-03-23T03:34:59;28.13;;;12.95;;
53010;SDS011;42803;55.762;38.084;2024-03-23T03:37:30;37.22;;;13.80;;
53010;SDS011;42803;55.762;38.084;2024-03-23T03:39:57;27.45;;;12.88;;
53010;SDS011;42803;55.762;38.084;2024-03-23T03:42:24;32.15;;;13.25;;
53010;SDS011;42803;55.762;38.084;2024-03-23T03:44:51;31.58;;;13.20;;
53010;SDS011;42803;55.762;38.084;2024-03-23T03:47:20;31.52;;;13.68;;
53010;SDS011;42803;55.762;38.084;2024-03-23T03:49:47;31.23;;;13.20;;
53010;SDS011;42803;55.762;38.084;2024-03-23T03:52:15;31.20;;;13.00;;
53010;SDS011;42803;55.762;38.084;2024-03-23T03:54:42;31.15;;;13.95;;
53010;SDS011;42803;55.762;38.084;2024-03-23T03:57:09;28.25;;;13.40;;
53010;SDS011;42803;55.762;38.084;2024-03-23T03:59:36;28.25;;;13.45;;
53010;SDS011;42803;55.762;38.084;2024-03-23T04:02:04;35.67;;;12.90;;
53010;SDS011;42803;55.762;38.084;2024-03-23T04:04:31;33.55;;;12.75;;
53010;SDS011;42803;55.762;38.084;2024-03-23T04:07:02;27.90;;;12.13;;
53010;SDS011;42803;55.762;38.084;2024-03-23T04:09:31;34.72;;;14.30;;
53010;SDS011;42803;55.762;38.084;2024-03-23T04:11:59;28.55;;;13.70;;
53010;SDS011;42803;55.762;38.084;2024-03-23T04:14:26;25.85;;;12.48;;
53010;SDS011;42803;55.762;38.084;2024-03-23T04:16:53;31.02;;;13.18;;
53010;SDS011;42803;55.762;38.084;2024-03-23T04:19:21;25.60;;;12.57;;
53010;SDS011;42803;55.762;38.084;2024-03-23T04:21:50;29.67;;;13.23;;
53010;SDS011;42803;55.762;38.084;2024-03-23T04:24:17;28.75;;;12.50;;
53010;SDS011;42803;55.762;38.084;2024-03-23T04:26:47;31.40;;;11.93;;
53010;SDS011;42803;55.762;38.084;2024-03-23T04:29:13;24.88;;;12.13;;
53010;SDS011;42803;55.762;38.084;2024-03-23T04:31:41;26.27;;;11.95;;
53010;SDS011;42803;55.762;38.084;2024-03-23T04:34:08;28.63;;;11.85;;
53010;SDS011;42803;55.762;38.084;2024-03-23T04:36:36;27.67;;;11.57;;
53010;SDS011;42803;55.762;38.084;2024-03-23T04:39:03;27.58;;;11.43;;
53010;SDS011;42803;55.762;38.084;2024-03-23T04:41:31;25.42;;;11.50;;
53010;SDS011;42803;55.762;38.084;2024-03-23T04:43:58;26.48;;;11.95;;
53010;SDS011;42803;55.762;38.084;2024-03-23T04:46:26;28.48;;;11.63;;
53010;SDS011;42803;55.762;38.084;2024-03-23T04:48:54;27.02;;;11.55;;
53010;SDS011;42803;55.762;38.084;2024-03-23T04:51:23;22.38;;;10.88;;
53010;SDS011;42803;55.762;38.084;2024-03-23T04:53:51;27.75;;;11.60;;
53010;SDS011;42803;55.762;38.084;2024-03-23T04:56:19;23.52;;;11.30;;
53010;SDS011;42803;55.762;38.084;2024-03-23T04:58:47;28.60;;;13.80;;
53010;SDS011;42803;55.762;38.084;2024-03-23T05:01:14;26.83;;;11.90;;
53010;SDS011;42803;55.762;38.084;2024-03-23T05:03:42;27.17;;;11.05;;
53010;SDS011;42803;55.762;38.084;2024-03-23T05:06:09;25.27;;;11.82;;
53010;SDS011;42803;55.762;38.084;2024-03-23T05:08:37;19.65;;;10.05;;
53010;SDS011;42803;55.762;38.084;2024-03-23T05:11:03;18.55;;;10.43;;
53010;SDS011;42803;55.762;38.084;2024-03-23T05:13:33;21.58;;;11.05;;
53010;SDS011;42803;55.762;38.084;2024-03-23T05:15:59;28.05;;;10.32;;
53010;SDS011;42803;55.762;38.084;2024-03-23T05:18:27;24.05;;;10.93;;
53010;SDS011;42803;55.762;38.084;2024-03-23T05:20:58;23.98;;;9.98;;
53010;SDS011;42803;55.762;38.084;2024-03-23T05:23:27;21.55;;;10.80;;
53010;SDS011;42803;55.762;38.084;2024-03-23T05:25:55;23.50;;;10.40;;
53010;SDS011;42803;55.762;38.084;2024-03-23T05:28:23;21.02;;;10.15;;
53010;SDS011;42803;55.762;38.084;2024-03-23T05:30:53;20.00;;;9.18;;
53010;SDS011;42803;55.762;38.084;2024-03-23T05:33:22;26.05;;;10.48;;
53010;SDS011;42803;55.762;38.084;2024-03-23T05:35:58;19.15;;;10.13;;
53010;SDS011;42803;55.762;38.084;2024-03-23T05:38:27;20.48;;;10.00;;
53010;SDS011;42803;55.762;38.084;2024-03-23T05:43:26;22.08;;;10.75;;
53010;SDS011;42803;55.762;38.084;2024-03-23T05:45:58;19.52;;;9.45;;
53010;SDS011;42803;55.762;38.084;2024-03-23T05:48:27;22.92;;;10.18;;
53010;SDS011;42803;55.762;38.084;2024-03-23T05:50:56;20.85;;;9.68;;
53010;SDS011;42803;55.762;38.084;2024-03-23T05:53:25;19.83;;;9.30;;
53010;SDS011;42803;55.762;38.084;2024-03-23T05:55:59;22.13;;;9.48;;
53010;SDS011;42803;55.762;38.084;2024-03-23T05:58:30;21.80;;;10.43;;
53010;SDS011;42803;55.762;38.084;2024-03-23T06:01:01;22.58;;;9.60;;
53010;SDS011;42803;55.762;38.084;2024-03-23T06:03:29;22.48;;;10.00;;
53010;SDS011;42803;55.762;38.084;2024-03-23T06:05:57;22.92;;;10.43;;
53010;SDS011;42803;55.762;38.084;2024-03-23T06:08:24;21.77;;;9.63;;
53010;SDS011;42803;55.762;38.084;2024-03-23T06:10:53;21.88;;;10.68;;
53010;SDS011;42803;55.762;38.084;2024-03-23T06:13:20;23.40;;;10.20;;
53010;SDS011;42803;55.762;38.084;2024-03-23T06:15:50;19.05;;;10.38;;
53010;SDS011;42803;55.762;38.084;2024-03-23T06:18:17;23.35;;;10.98;;
53010;SDS011;42803;55.762;38.084;2024-03-23T06:20:45;21.65;;;10.27;;
53010;SDS011;42803;55.762;38.084;2024-03-23T06:23:12;20.95;;;10.13;;
53010;SDS011;42803;55.762;38.084;2024-03-23T06:25:42;22.27;;;10.02;;
53010;SDS011;42803;55.762;38.084;2024-03-23T06:28:10;19.30;;;9.63;;
53010;SDS011;42803;55.762;38.084;2024-03-23T06:30:38;27.65;;;10.15;;
53010;SDS011;42803;55.762;38.084;2024-03-23T06:33:05;22.38;;;9.88;;
53010;SDS011;42803;55.762;38.084;2024-03-23T06:35:33;24.58;;;10.95;;
53010;SDS011;42803;55.762;38.084;2024-03-23T06:38:00;20.45;;;9.88;;
53010;SDS011;42803;55.762;38.084;2024-03-23T06:40:27;19.83;;;9.90;;
53010;SDS011;42803;55.762;38.084;2024-03-23T06:42:54;27.25;;;10.52;;
53010;SDS011;42803;55.762;38.084;2024-03-23T06:45:22;20.83;;;10.60;;
53010;SDS011;42803;55.762;38.084;2024-03-23T06:47:50;21.70;;;10.48;;
53010;SDS011;42803;55.762;38.084;2024-03-23T06:50:18;27.42;;;11.02;;
53010;SDS011;42803;55.762;38.084;2024-03-23T06:52:45;18.23;;;10.55;;
53010;SDS011;42803;55.762;38.084;2024-03-23T06:55:13;19.35;;;9.63;;
53010;SDS011;42803;55.762;38.084;2024-03-23T06:57:40;24.15;;;10.02;;
53010;SDS011;42803;55.762;38.084;2024-03-23T07:00:08;17.25;;;9.82;;
53010;SDS011;42803;55.762;38.084;2024-03-23T07:02:38;21.30;;;9.95;;
53010;SDS011;42803;55.762;38.084;2024-03-23T07:05:06;18.88;;;9.80;;
53010;SDS011;42803;55.762;38.084;2024-03-23T07:07:33;18.83;;;9.90;;
53010;SDS011;42803;55.762;38.084;2024-03-23T07:10:01;20.00;;;10.38;;
53010;SDS011;42803;55.762;38.084;2024-03-23T07:12:28;19.40;;;9.32;;
53010;SDS011;42803;55.762;38.084;2024-03-23T07:14:56;21.30;;;10.30;;
53010;SDS011;42803;55.762;38.084;2024-03-23T07:17:22;20.42;;;11.48;;
53010;SDS011;42803;55.762;38.084;2024-03-23T07:19:50;19.70;;;9.80;;
53010;SDS011;42803;55.762;38.084;2024-03-23T07:22:17;21.40;;;9.43;;
53010;SDS011;42803;55.762;38.084;2024-03-23T07:24:45;19.92;;;9.80;;
53010;SDS011;42803;55.762;38.084;2024-03-23T07:27:12;21.35;;;10.93;;
53010;SDS011;42803;55.762;38.084;2024-03-23T07:29:40;18.83;;;9.65;;
53010;SDS011;42803;55.762;38.084;2024-03-23T07:32:06;25.58;;;11.63;;
53010;SDS011;42803;55.762;38.084;2024-03-23T07:34:34;21.02;;;10.32;;
53010;SDS011;42803;55.762;38.084;2024-03-23T07:37:01;20.58;;;10.15;;
53010;SDS011;42803;55.762;38.084;2024-03-23T07:39:29;20.30;;;10.05;;
53010;SDS011;42803;55.762;38.084;2024-03-23T07:41:58;19.13;;;9.52;;
53010;SDS011;42803;55.762;38.084;2024-03-23T07:44:26;15.93;;;9.68;;
53010;SDS011;42803;55.762;38.084;2024-03-23T07:46:53;17.55;;;8.88;;
53010;SDS011;42803;55.762;38.084;2024-03-23T07:49:21;16.00;;;8.57;;
53010;SDS011;42803;55.762;38.084;2024-03-23T07:51:47;19.88;;;9.57;;
53010;SDS011;42803;55.762;38.084;2024-03-23T07:54:15;19.73;;;9.95;;
53010;SDS011;42803;55.762;38.084;2024-03-23T07:56:42;17.38;;;9.45;;
53010;SDS011;42803;55.762;38.084;2024-03-23T07:59:10;15.25;;;9.20;;
53010;SDS011;42803;55.762;38.084;2024-03-23T08:01:37;15.93;;;8.88;;
53010;SDS011;42803;55.762;38.084;2024-03-23T08:04:05;21.70;;;9.15;;
53010;SDS011;42803;55.762;38.084;2024-03-23T08:06:33;19.70;;;9.80;;
53010;SDS011;42803;55.762;38.084;2024-03-23T08:09:00;17.60;;;9.25;;
53010;SDS011;42803;55.762;38.084;2024-03-23T08:11:29;17.60;;;9.63;;
53010;SDS011;42803;55.762;38.084;2024-03-23T08:13:57;21.23;;;9.70;;
53010;SDS011;42803;55.762;38.084;2024-03-23T08:16:25;17.95;;;9.40;;
53010;SDS011;42803;55.762;38.084;2024-03-23T08:18:51;17.63;;;9.00;;
53010;SDS011;42803;55.762;38.084;2024-03-23T08:21:19;17.33;;;9.68;;
53010;SDS011;42803;55.762;38.084;2024-03-23T08:23:46;15.68;;;9.05;;
53010;SDS011;42803;55.762;38.084;2024-03-23T08:26:14;16.95;;;9.68;;
53010;SDS011;42803;55.762;38.084;2024-03-23T08:28:42;17.48;;;9.27;;
53010;SDS011;42803;55.762;38.084;2024-03-23T08:31:11;15.65;;;8.77;;
53010;SDS011;42803;55.762;38.084;2024-03-23T08:33:38;15.73;;;8.75;;
53010;SDS011;42803;55.762;38.084;2024-03-23T08:36:09;16.23;;;8.95;;
53010;SDS011;42803;55.762;38.084;2024-03-23T08:38:39;19.77;;;9.55;;
53010;SDS011;42803;55.762;38.084;2024-03-23T08:41:08;19.55;;;9.68;;
53010;SDS011;42803;55.762;38.084;2024-03-23T08:43:37;18.02;;;9.30;;
53010;SDS011;42803;55.762;38.084;2024-03-23T08:46:06;15.88;;;10.02;;
53010;SDS011;42803;55.762;38.084;2024-03-23T08:48:35;16.35;;;9.02;;
53010;SDS011;42803;55.762;38.084;2024-03-23T08:51:04;18.17;;;9.18;;
53010;SDS011;42803;55.762;38.084;2024-03-23T08:53:33;19.52;;;9.32;;
53010;SDS011;42803;55.762;38.084;2024-03-23T08:56:02;14.40;;;8.95;;
53010;SDS011;42803;55.762;38.084;2024-03-23T08:58:31;21.25;;;9.98;;
53010;SDS011;42803;55.762;38.084;2024-03-23T09:01:03;17.90;;;10.05;;
53010;SDS011;42803;55.762;38.084;2024-03-23T09:03:37;16.40;;;9.10;;
53010;SDS011;42803;55.762;38.084;2024-03-23T09:06:08;15.15;;;8.93;;
53010;SDS011;42803;55.762;38.084;2024-03-23T09:08:36;20.88;;;10.25;;
53010;SDS011;42803;55.762;38.084;2024-03-23T09:11:06;16.17;;;8.95;;
53010;SDS011;42803;55.762;38.084;2024-03-23T09:13:35;16.45;;;9.13;;
53010;SDS011;42803;55.762;38.084;2024-03-23T09:16:05;16.52;;;8.43;;
53010;SDS011;42803;55.762;38.084;2024-03-23T09:18:33;19.73;;;9.88;;
53010;SDS011;42803;55.762;38.084;2024-03-23T09:21:03;17.40;;;9.57;;
53010;SDS011;42803;55.762;38.084;2024-03-23T09:23:30;15.20;;;7.95;;
53010;SDS011;42803;55.762;38.084;2024-03-23T09:26:02;15.10;;;9.20;;
53010;SDS011;42803;55.762;38.084;2024-03-23T09:28:29;17.83;;;10.02;;
53010;SDS011;42803;55.762;38.084;2024-03-23T09:31:07;17.38;;;8.75;;
53010;SDS011;42803;55.762;38.084;2024-03-23T09:33:35;16.88;;;9.07;;
53010;SDS011;42803;55.762;38.084;2024-03-23T09:36:03;19.17;;;10.55;;
53010;SDS011;42803;55.762;38.084;2024-03-23T09:38:31;18.75;;;10.38;;
53010;SDS011;42803;55.762;38.084;2024-03-23T09:41:00;17.23;;;8.95;;
53010;SDS011;42803;55.762;38.084;2024-03-23T09:43:27;21.45;;;10.52;;
53010;SDS011;42803;55.762;38.084;2024-03-23T09:45:55;18.52;;;9.52;;
53010;SDS011;42803;55.762;38.084;2024-03-23T09:48:22;20.73;;;10.00;;
53010;SDS011;42803;55.762;38.084;2024-03-23T09:50:49;18.27;;;8.63;;
53010;SDS011;42803;55.762;38.084;2024-03-23T09:53:16;18.13;;;10.32;;
53010;SDS011;42803;55.762;38.084;2024-03-23T09:55:44;18.15;;;9.57;;
53010;SDS011;42803;55.762;38.084;2024-03-23T09:58:12;16.77;;;9.98;;
53010;SDS011;42803;55.762;38.084;2024-03-23T10:00:40;16.20;;;9.20;;
53010;SDS011;42803;55.762;38.084;2024-03-23T10:03:07;20.15;;;10.00;;
53010;SDS011;42803;55.762;38.084;2024-03-23T10:05:37;18.52;;;9.55;;
53010;SDS011;42803;55.762;38.084;2024-03-23T10:08:38;16.15;;;9.25;;
53010;SDS011;42803;55.762;38.084;2024-03-23T10:11:02;18.02;;;9.10;;
53010;SDS011;42803;55.762;38.084;2024-03-23T10:13:40;20.40;;;10.38;;
53010;SDS011;42803;55.762;38.084;2024-03-23T10:16:10;17.17;;;9.60;;
53010;SDS011;42803;55.762;38.084;2024-03-23T10:18:37;16.35;;;9.10;;
53010;SDS011;42803;55.762;38.084;2024-03-23T10:23:35;18.77;;;9.80;;
53010;SDS011;42803;55.762;38.084;2024-03-23T10:26:22;13.23;;;8.60;;
53010;SDS011;42803;55.762;38.084;2024-03-23T10:31:20;17.95;;;9.65;;
53010;SDS011;42803;55.762;38.084;2024-03-23T10:33:50;16.13;;;9.65;;
53010;SDS011;42803;55.762;38.084;2024-03-23T10:36:20;14.75;;;8.20;;
53010;SDS011;42803;55.762;38.084;2024-03-23T10:38:52;15.60;;;8.70;;
53010;SDS011;42803;55.762;38.084;2024-03-23T10:41:20;14.60;;;8.13;;
53010;SDS011;42803;55.762;38.084;2024-03-23T10:43:48;13.55;;;8.73;;
53010;SDS011;42803;55.762;38.084;2024-03-23T10:46:15;15.68;;;8.27;;
53010;SDS011;42803;55.762;38.084;2024-03-23T10:48:43;14.90;;;8.50;;
53010;SDS011;42803;55.762;38.084;2024-03-23T10:51:10;16.42;;;8.65;;
53010;SDS011;42803;55.762;38.084;2024-03-23T10:53:39;16.35;;;8.90;;
53010;SDS011;42803;55.762;38.084;2024-03-23T10:56:06;18.60;;;10.68;;
53010;SDS011;42803;55.762;38.084;2024-03-23T10:58:42;16.80;;;8.90;;
53010;SDS011;42803;55.762;38.084;2024-03-23T11:01:12;21.90;;;10.00;;
53010;SDS011;42803;55.762;38.084;2024-03-23T11:03:45;19.50;;;10.63;;
53010;SDS011;42803;55.762;38.084;2024-03-23T11:12:44;19.85;;;11.25;;
53010;SDS011;42803;55.762;38.084;2024-03-23T11:14:52;24.08;;;12.80;;
53010;SDS011;42803;55.762;38.084;2024-03-23T11:17:21;20.02;;;11.23;;
53010;SDS011;42803;55.762;38.084;2024-03-23T11:25:21;17.45;;;9.77;;
53010;SDS011;42803;55.762;38.084;2024-03-23T11:27:51;18.70;;;10.45;;
53010;SDS011;42803;55.762;38.084;2024-03-23T11:30:23;17.25;;;10.57;;
53010;SDS011;42803;55.762;38.084;2024-03-23T11:32:53;18.75;;;10.75;;
53010;SDS011;42803;55.762;38.084;2024-03-23T11:35:34;19.00;;;10.98;;
53010;SDS011;42803;55.762;38.084;2024-03-23T11:38:08;16.98;;;10.18;;
53010;SDS011;42803;55.762;38.084;2024-03-23T11:40:39;16.70;;;9.82;;
53010;SDS011;42803;55.762;38.084;2024-03-23T11:43:08;14.68;;;8.68;;
53010;SDS011;42803;55.762;38.084;2024-03-23T11:45:39;16.48;;;8.65;;
53010;SDS011;42803;55.762;38.084;2024-03-23T11:48:09;17.95;;;9.48;;
53010;SDS011;42803;55.762;38.084;2024-03-23T11:50:45;18.67;;;9.93;;
53010;SDS011;42803;55.762;38.084;2024-03-23T11:58:15;22.20;;;10.43;;
53010;SDS011;42803;55.762;38.084;2024-03-23T12:03:19;18.13;;;10.43;;
53010;SDS011;42803;55.762;38.084;2024-03-23T12:05:49;20.25;;;10.95;;
53010;SDS011;42803;55.762;38.084;2024-03-23T12:08:23;19.77;;;10.38;;
53010;SDS011;42803;55.762;38.084;2024-03-23T12:11:04;15.68;;;9.05;;
53010;SDS011;42803;55.762;38.084;2024-03-23T12:13:38;15.98;;;9.35;;
53010;SDS011;42803;55.762;38.084;2024-03-23T12:16:11;14.45;;;8.15;;
53010;SDS011;42803;55.762;38.084;2024-03-23T12:18:39;13.13;;;8.57;;
53010;SDS011;42803;55.762;38.084;2024-03-23T12:21:08;14.73;;;7.88;;
53010;SDS011;42803;55.762;38.084;2024-03-23T12:23:35;16.95;;;8.40;;
53010;SDS011;42803;55.762;38.084;2024-03-23T12:26:06;15.13;;;8.13;;
53010;SDS011;42803;55.762;38.084;2024-03-23T12:28:33;14.95;;;8.27;;
53010;SDS011;42803;55.762;38.084;2024-03-23T12:31:01;15.43;;;8.55;;
53010;SDS011;42803;55.762;38.084;2024-03-23T12:33:28;14.73;;;8.85;;
53010;SDS011;42803;55.762;38.084;2024-03-23T12:35:56;15.70;;;8.70;;
53010;SDS011;42803;55.762;38.084;2024-03-23T12:38:23;13.50;;;7.50;;
53010;SDS011;42803;55.762;38.084;2024-03-23T12:40:51;16.35;;;8.45;;
53010;SDS011;42803;55.762;38.084;2024-03-23T12:43:18;16.48;;;9.75;;
53010;SDS011;42803;55.762;38.084;2024-03-23T12:45:46;16.38;;;9.25;;
53010;SDS011;42803;55.762;38.084;2024-03-23T12:48:14;16.60;;;9.63;;
53010;SDS011;42803;55.762;38.084;2024-03-23T12:51:00;21.63;;;10.70;;
53010;SDS011;42803;55.762;38.084;2024-03-23T12:53:27;17.60;;;9.40;;
53010;SDS011;42803;55.762;38.084;2024-03-23T12:55:55;18.05;;;10.00;;
53010;SDS011;42803;55.762;38.084;2024-03-23T12:58:23;19.13;;;10.68;;
53010;SDS011;42803;55.762;38.084;2024-03-23T13:00:51;18.60;;;9.90;;
53010;SDS011;42803;55.762;38.084;2024-03-23T13:03:17;20.38;;;10.43;;
53010;SDS011;42803;55.762;38.084;2024-03-23T13:05:51;18.52;;;10.65;;
53010;SDS011;42803;55.762;38.084;2024-03-23T13:08:19;18.80;;;10.52;;
53010;SDS011;42803;55.762;38.084;2024-03-23T13:10:47;23.25;;;11.35;;
53010;SDS011;42803;55.762;38.084;2024-03-23T13:13:14;19.65;;;11.02;;
53010;SDS011;42803;55.762;38.084;2024-03-23T13:15:41;19.48;;;11.30;;
53010;SDS011;42803;55.762;38.084;2024-03-23T13:18:08;22.35;;;11.02;;
53010;SDS011;42803;55.762;38.084;2024-03-23T13:20:36;18.13;;;11.00;;
53010;SDS011;42803;55.762;38.084;2024-03-23T13:23:03;24.08;;;11.85;;
53010;SDS011;42803;55.762;38.084;2024-03-23T13:25:31;20.77;;;11.10;;
53010;SDS011;42803;55.762;38.084;2024-03-23T13:27:59;24.75;;;12.90;;
53010;SDS011;42803;55.762;38.084;2024-03-23T13:30:27;24.42;;;12.52;;
53010;SDS011;42803;55.762;38.084;2024-03-23T13:32:56;23.08;;;12.57;;
53010;SDS011;42803;55.762;38.084;2024-03-23T13:35:24;31.05;;;13.35;;
53010;SDS011;42803;55.762;38.084;2024-03-23T13:37:51;24.92;;;12.60;;
53010;SDS011;42803;55.762;38.084;2024-03-23T13:40:19;25.00;;;12.65;;
53010;SDS011;42803;55.762;38.084;2024-03-23T13:42:46;23.77;;;13.63;;
53010;SDS011;42803;55.762;38.084;2024-03-23T13:45:14;24.23;;;12.48;;
53010;SDS011;42803;55.762;38.084;2024-03-23T13:47:42;29.02;;;12.25;;
53010;SDS011;42803;55.762;38.084;2024-03-23T13:50:09;23.33;;;12.68;;
53010;SDS011;42803;55.762;38.084;2024-03-23T13:52:36;26.02;;;12.10;;
53010;SDS011;42803;55.762;38.084;2024-03-23T13:55:03;30.35;;;14.25;;
53010;SDS011;42803;55.762;38.084;2024-03-23T13:57:33;29.23;;;15.38;;
53010;SDS011;42803;55.762;38.084;2024-03-23T14:00:00;30.42;;;14.55;;
53010;SDS011;42803;55.762;38.084;2024-03-23T14:02:39;24.73;;;13.57;;
53010;SDS011;42803;55.762;38.084;2024-03-23T14:05:06;25.63;;;12.95;;
53010;SDS011;42803;55.762;38.084;2024-03-23T14:07:34;27.77;;;12.70;;
53010;SDS011;42803;55.762;38.084;2024-03-23T14:10:04;25.08;;;12.65;;
53010;SDS011;42803;55.762;38.084;2024-03-23T14:12:33;26.90;;;11.90;;
53010;SDS011;42803;55.762;38.084;2024-03-23T14:15:00;26.45;;;12.38;;
53010;SDS011;42803;55.762;38.084;2024-03-23T14:17:30;23.00;;;11.88;;
53010;SDS011;42803;55.762;38.084;2024-03-23T14:19:57;27.05;;;13.27;;
53010;SDS011;42803;55.762;38.084;2024-03-23T14:22:27;26.83;;;12.43;;
53010;SDS011;42803;55.762;38.084;2024-03-23T14:24:55;24.35;;;12.75;;
53010;SDS011;42803;55.762;38.084;2024-03-23T14:27:22;21.55;;;12.20;;
53010;SDS011;42803;55.762;38.084;2024-03-23T14:29:50;23.42;;;12.65;;
53010;SDS011;42803;55.762;38.084;2024-03-23T14:32:17;24.50;;;12.68;;
53010;SDS011;42803;55.762;38.084;2024-03-23T14:34:45;25.98;;;14.75;;
53010;SDS011;42803;55.762;38.084;2024-03-23T14:37:13;25.77;;;12.73;;
53010;SDS011;42803;55.762;38.084;2024-03-23T14:39:42;27.95;;;14.43;;
53010;SDS011;42803;55.762;38.084;2024-03-23T14:42:11;26.02;;;14.07;;
53010;SDS011;42803;55.762;38.084;2024-03-23T14:44:39;24.90;;;12.98;;
53010;SDS011;42803;55.762;38.084;2024-03-23T14:47:06;30.00;;;14.38;;
53010;SDS011;42803;55.762;38.084;2024-03-23T14:49:34;33.15;;;15.38;;
53010;SDS011;42803;55.762;38.084;2024-03-23T14:52:02;27.35;;;14.45;;
53010;SDS011;42803;55.762;38.084;2024-03-23T14:54:31;28.38;;;15.55;;
53010;SDS011;42803;55.762;38.084;2024-03-23T14:56:58;32.38;;;15.48;;
53010;SDS011;42803;55.762;38.084;2024-03-23T14:59:26;28.80;;;15.38;;
53010;SDS011;42803;55.762;38.084;2024-03-23T15:01:53;33.28;;;16.13;;
53010;SDS011;42803;55.762;38.084;2024-03-23T15:04:20;33.92;;;16.15;;
53010;SDS011;42803;55.762;38.084;2024-03-23T15:06:47;34.05;;;16.42;;
53010;SDS011;42803;55.762;38.084;2024-03-23T15:09:16;33.47;;;15.25;;
53010;SDS011;42803;55.762;38.084;2024-03-23T15:11:44;34.45;;;16.38;;
53010;SDS011;42803;55.762;38.084;2024-03-23T15:14:12;32.83;;;16.95;;
53010;SDS011;42803;55.762;38.084;2024-03-23T15:16:38;33.80;;;17.13;;
53010;SDS011;42803;55.762;38.084;2024-03-23T15:19:08;35.13;;;18.35;;
53010;SDS011;42803;55.762;38.084;2024-03-23T15:21:35;41.17;;;18.75;;
53010;SDS011;42803;55.762;38.084;2024-03-23T15:24:04;35.15;;;16.75;;
53010;SDS011;42803;55.762;38.084;2024-03-23T15:26:31;38.20;;;17.92;;
53010;SDS011;42803;55.762;38.084;2024-03-23T15:28:59;35.88;;;16.83;;
53010;SDS011;42803;55.762;38.084;2024-03-23T15:31:45;37.38;;;17.15;;
53010;SDS011;42803;55.762;38.084;2024-03-23T15:34:19;35.03;;;16.55;;
53010;SDS011;42803;55.762;38.084;2024-03-23T15:36:50;32.83;;;17.00;;
53010;SDS011;42803;55.762;38.084;2024-03-23T15:39:19;34.25;;;16.92;;